sensor_id;sensor_type;location;lat;lon;timestamp;P1;durP1;ratioP1;P2;durP2;ratioP2
47089;SDS011;32840;52.516;13.294;2022-09-09T00:02:20;8.38;;;6.43;;
47089;SDS011;32840;52.516;13.294;2022-09-09T00:05:17;9.70;;;6.65;;
47089;SDS011;32840;52.516;13.294;2022-09-09T00:08:04;6.85;;;6.03;;
47089;SDS011;32840;52.516;13.294;2022-09-09T00:10:54;7.00;;;6.10;;
47089;SDS011;32840;52.516;13.294;2022-09-09T00:13:46;6.13;;;5.53;;
47089;SDS011;32840;52.516;13.294;2022-09-09T00:16:36;7.50;;;6.47;;
47089;SDS011;32840;52.516;13.294;2022-09-09T00:19:31;7.10;;;6.40;;
47089;SDS011;32840;52.516;13.294;2022-09-09T00:22:24;7.75;;;5.68;;
47089;SDS011;32840;52.516;13.294;2022-09-09T00:25:14;8.07;;;6.40;;
47089;SDS011;32840;52.516;13.294;2022-09-09T00:28:13;7.15;;;6.35;;
47089;SDS011;32840;52.516;13.294;2022-09-09T00:31:13;8.40;;;7.57;;
47089;SDS011;32840;52.516;13.294;2022-09-09T00:34:11;9.80;;;7.07;;
47089;SDS011;32840;52.516;13.294;2022-09-09T00:36:58;7.78;;;7.03;;
47089;SDS011;32840;52.516;13.294;2022-09-09T00:39:47;8.23;;;7.22;;
47089;SDS011;32840;52.516;13.294;2022-09-09T00:42:36;9.80;;;8.07;;
47089;SDS011;32840;52.516;13.294;2022-09-09T00:58:18;8.02;;;6.95;;
47089;SDS011;32840;52.516;13.294;2022-09-09T01:01:08;8.93;;;8.02;;
47089;SDS011;32840;52.516;13.294;2022-09-09T01:03:56;9.77;;;7.38;;
47089;SDS011;32840;52.516;13.294;2022-09-09T01:06:45;8.25;;;7.45;;
47089;SDS011;32840;52.516;13.294;2022-09-09T01:09:50;7.90;;;7.10;;
47089;SDS011;32840;52.516;13.294;2022-09-09T01:12:41;9.05;;;6.85;;
47089;SDS011;32840;52.516;13.294;2022-09-09T01:15:27;9.10;;;7.60;;
47089;SDS011;32840;52.516;13.294;2022-09-09T01:18:18;9.02;;;7.30;;
47089;SDS011;32840;52.516;13.294;2022-09-09T01:27:02;7.70;;;7.00;;
47089;SDS011;32840;52.516;13.294;2022-09-09T01:29:49;8.85;;;6.70;;
47089;SDS011;32840;52.516;13.294;2022-09-09T01:32:39;9.50;;;7.43;;
47089;SDS011;32840;52.516;13.294;2022-09-09T01:38:14;9.10;;;6.28;;
47089;SDS011;32840;52.516;13.294;2022-09-09T01:40:59;7.82;;;7.03;;
47089;SDS011;32840;52.516;13.294;2022-09-09T01:43:44;6.95;;;6.20;;
47089;SDS011;32840;52.516;13.294;2022-09-09T01:46:29;7.93;;;6.97;;
47089;SDS011;32840;52.516;13.294;2022-09-09T01:49:14;8.00;;;7.20;;
47089;SDS011;32840;52.516;13.294;2022-09-09T01:52:02;8.27;;;7.30;;
47089;SDS011;32840;52.516;13.294;2022-09-09T01:54:47;7.22;;;6.43;;
47089;SDS011;32840;52.516;13.294;2022-09-09T02:04:07;8.13;;;7.32;;
47089;SDS011;32840;52.516;13.294;2022-09-09T02:07:09;9.50;;;7.03;;
47089;SDS011;32840;52.516;13.294;2022-09-09T02:10:08;7.22;;;6.32;;
47089;SDS011;32840;52.516;13.294;2022-09-09T02:13:03;7.22;;;6.53;;
47089;SDS011;32840;52.516;13.294;2022-09-09T02:15:56;9.45;;;7.15;;
47089;SDS011;32840;52.516;13.294;2022-09-09T02:21:44;9.82;;;7.18;;
47089;SDS011;32840;52.516;13.294;2022-09-09T02:24:31;9.20;;;6.38;;
47089;SDS011;32840;52.516;13.294;2022-09-09T02:27:20;7.55;;;6.60;;
47089;SDS011;32840;52.516;13.294;2022-09-09T02:30:06;8.52;;;7.70;;
47089;SDS011;32840;52.516;13.294;2022-09-09T02:32:52;9.43;;;6.72;;
47089;SDS011;32840;52.516;13.294;2022-09-09T02:35:43;8.20;;;6.78;;
47089;SDS011;32840;52.516;13.294;2022-09-09T02:38:29;18.05;;;14.07;;
47089;SDS011;32840;52.516;13.294;2022-09-09T02:41:20;8.18;;;7.32;;
47089;SDS011;32840;52.516;13.294;2022-09-09T02:44:11;7.95;;;7.15;;
47089;SDS011;32840;52.516;13.294;2022-09-09T02:49:59;11.32;;;7.22;;
47089;SDS011;32840;52.516;13.294;2022-09-09T02:52:53;9.82;;;7.18;;
47089;SDS011;32840;52.516;13.294;2022-09-09T02:58:42;7.88;;;6.90;;
47089;SDS011;32840;52.516;13.294;2022-09-09T03:01:28;8.13;;;7.05;;
47089;SDS011;32840;52.516;13.294;2022-09-09T03:04:13;8.48;;;7.50;;
47089;SDS011;32840;52.516;13.294;2022-09-09T03:06:58;8.25;;;6.57;;
47089;SDS011;32840;52.516;13.294;2022-09-09T03:09:43;7.38;;;6.20;;
47089;SDS011;32840;52.516;13.294;2022-09-09T03:12:28;8.00;;;7.20;;
47089;SDS011;32840;52.516;13.294;2022-09-09T03:15:13;8.05;;;7.18;;
47089;SDS011;32840;52.516;13.294;2022-09-09T03:17:59;8.45;;;7.13;;
47089;SDS011;32840;52.516;13.294;2022-09-09T03:20:45;8.02;;;6.50;;
47089;SDS011;32840;52.516;13.294;2022-09-09T03:23:32;8.52;;;7.10;;
47089;SDS011;32840;52.516;13.294;2022-09-09T03:26:17;9.18;;;6.85;;
47089;SDS011;32840;52.516;13.294;2022-09-09T03:29:03;9.98;;;7.35;;
47089;SDS011;32840;52.516;13.294;2022-09-09T03:31:50;8.40;;;7.03;;
47089;SDS011;32840;52.516;13.294;2022-09-09T03:34:35;11.63;;;7.63;;
47089;SDS011;32840;52.516;13.294;2022-09-09T03:37:23;9.23;;;6.75;;
47089;SDS011;32840;52.516;13.294;2022-09-09T03:40:08;10.30;;;7.10;;
47089;SDS011;32840;52.516;13.294;2022-09-09T03:42:54;8.65;;;7.10;;
47089;SDS011;32840;52.516;13.294;2022-09-09T03:45:39;10.93;;;7.20;;
47089;SDS011;32840;52.516;13.294;2022-09-09T03:48:24;10.07;;;6.97;;
47089;SDS011;32840;52.516;13.294;2022-09-09T03:51:12;7.53;;;6.47;;
47089;SDS011;32840;52.516;13.294;2022-09-09T03:53:57;9.13;;;7.25;;
47089;SDS011;32840;52.516;13.294;2022-09-09T03:56:42;9.82;;;6.30;;
47089;SDS011;32840;52.516;13.294;2022-09-09T03:59:27;9.55;;;7.93;;
47089;SDS011;32840;52.516;13.294;2022-09-09T04:02:12;7.95;;;6.40;;
47089;SDS011;32840;52.516;13.294;2022-09-09T04:04:57;11.05;;;6.97;;
47089;SDS011;32840;52.516;13.294;2022-09-09T04:07:42;8.63;;;6.78;;
47089;SDS011;32840;52.516;13.294;2022-09-09T04:10:26;10.93;;;7.30;;
47089;SDS011;32840;52.516;13.294;2022-09-09T04:13:13;9.10;;;6.65;;
47089;SDS011;32840;52.516;13.294;2022-09-09T04:16:00;6.88;;;6.13;;
47089;SDS011;32840;52.516;13.294;2022-09-09T04:18:46;8.23;;;6.07;;
47089;SDS011;32840;52.516;13.294;2022-09-09T04:21:31;8.65;;;6.72;;
47089;SDS011;32840;52.516;13.294;2022-09-09T04:24:16;8.13;;;5.72;;
47089;SDS011;32840;52.516;13.294;2022-09-09T04:27:01;7.35;;;6.30;;
47089;SDS011;32840;52.516;13.294;2022-09-09T04:29:46;9.45;;;6.05;;
47089;SDS011;32840;52.516;13.294;2022-09-09T04:32:32;6.25;;;5.65;;
47089;SDS011;32840;52.516;13.294;2022-09-09T04:35:17;6.60;;;5.70;;
47089;SDS011;32840;52.516;13.294;2022-09-09T04:38:04;7.20;;;5.75;;
47089;SDS011;32840;52.516;13.294;2022-09-09T04:40:50;8.85;;;6.22;;
47089;SDS011;32840;52.516;13.294;2022-09-09T04:43:36;8.02;;;6.57;;
47089;SDS011;32840;52.516;13.294;2022-09-09T04:46:21;7.38;;;5.65;;
47089;SDS011;32840;52.516;13.294;2022-09-09T04:49:07;9.38;;;5.82;;
47089;SDS011;32840;52.516;13.294;2022-09-09T04:51:52;6.15;;;5.28;;
47089;SDS011;32840;52.516;13.294;2022-09-09T04:54:36;8.00;;;5.35;;
47089;SDS011;32840;52.516;13.294;2022-09-09T04:57:21;11.48;;;6.45;;
47089;SDS011;32840;52.516;13.294;2022-09-09T05:00:07;8.07;;;6.03;;
47089;SDS011;32840;52.516;13.294;2022-09-09T05:02:54;7.15;;;5.25;;
47089;SDS011;32840;52.516;13.294;2022-09-09T05:05:38;9.32;;;4.97;;
47089;SDS011;32840;52.516;13.294;2022-09-09T05:08:23;7.53;;;5.22;;
47089;SDS011;32840;52.516;13.294;2022-09-09T05:11:15;6.70;;;5.38;;
47089;SDS011;32840;52.516;13.294;2022-09-09T05:14:04;7.00;;;5.57;;
47089;SDS011;32840;52.516;13.294;2022-09-09T05:16:49;6.80;;;5.38;;
47089;SDS011;32840;52.516;13.294;2022-09-09T05:19:34;6.63;;;5.22;;
47089;SDS011;32840;52.516;13.294;2022-09-09T05:22:19;9.15;;;5.55;;
47089;SDS011;32840;52.516;13.294;2022-09-09T05:25:05;8.02;;;5.15;;
47089;SDS011;32840;52.516;13.294;2022-09-09T05:27:52;6.72;;;5.20;;
47089;SDS011;32840;52.516;13.294;2022-09-09T05:30:37;6.43;;;4.97;;
47089;SDS011;32840;52.516;13.294;2022-09-09T05:33:23;7.00;;;4.70;;
47089;SDS011;32840;52.516;13.294;2022-09-09T05:36:10;8.20;;;4.60;;
47089;SDS011;32840;52.516;13.294;2022-09-09T05:39:03;6.57;;;4.43;;
47089;SDS011;32840;52.516;13.294;2022-09-09T05:41:48;5.88;;;5.20;;
47089;SDS011;32840;52.516;13.294;2022-09-09T05:44:33;8.05;;;4.70;;
47089;SDS011;32840;52.516;13.294;2022-09-09T05:47:18;6.32;;;4.38;;
47089;SDS011;32840;52.516;13.294;2022-09-09T05:50:03;7.95;;;4.00;;
47089;SDS011;32840;52.516;13.294;2022-09-09T05:52:48;5.68;;;4.88;;
47089;SDS011;32840;52.516;13.294;2022-09-09T05:55:34;5.68;;;4.35;;
47089;SDS011;32840;52.516;13.294;2022-09-09T05:58:19;6.13;;;4.30;;
47089;SDS011;32840;52.516;13.294;2022-09-09T06:03:51;6.88;;;4.13;;
47089;SDS011;32840;52.516;13.294;2022-09-09T06:06:36;5.35;;;4.45;;
47089;SDS011;32840;52.516;13.294;2022-09-09T06:09:23;10.27;;;7.20;;
47089;SDS011;32840;52.516;13.294;2022-09-09T06:12:08;7.88;;;5.05;;
47089;SDS011;32840;52.516;13.294;2022-09-09T06:14:53;5.57;;;4.15;;
47089;SDS011;32840;52.516;13.294;2022-09-09T06:17:38;7.88;;;4.57;;
47089;SDS011;32840;52.516;13.294;2022-09-09T06:20:23;7.72;;;4.43;;
47089;SDS011;32840;52.516;13.294;2022-09-09T06:23:08;7.13;;;3.35;;
47089;SDS011;32840;52.516;13.294;2022-09-09T06:26:00;6.28;;;3.60;;
47089;SDS011;32840;52.516;13.294;2022-09-09T06:28:56;5.40;;;3.63;;
47089;SDS011;32840;52.516;13.294;2022-09-09T06:31:42;6.00;;;3.40;;
47089;SDS011;32840;52.516;13.294;2022-09-09T06:34:27;4.22;;;3.25;;
47089;SDS011;32840;52.516;13.294;2022-09-09T06:37:12;10.45;;;4.15;;
47089;SDS011;32840;52.516;13.294;2022-09-09T06:39:57;8.05;;;3.47;;
47089;SDS011;32840;52.516;13.294;2022-09-09T06:42:42;8.75;;;3.70;;
47089;SDS011;32840;52.516;13.294;2022-09-09T06:45:27;6.20;;;3.63;;
47089;SDS011;32840;52.516;13.294;2022-09-09T06:48:12;8.10;;;3.50;;
47089;SDS011;32840;52.516;13.294;2022-09-09T06:53:49;10.50;;;4.85;;
47089;SDS011;32840;52.516;13.294;2022-09-09T06:56:36;8.23;;;4.05;;
47089;SDS011;32840;52.516;13.294;2022-09-09T06:59:24;6.97;;;3.40;;
47089;SDS011;32840;52.516;13.294;2022-09-09T07:02:09;6.05;;;3.80;;
47089;SDS011;32840;52.516;13.294;2022-09-09T07:04:54;5.43;;;3.10;;
47089;SDS011;32840;52.516;13.294;2022-09-09T07:07:38;5.18;;;2.72;;
47089;SDS011;32840;52.516;13.294;2022-09-09T07:10:24;6.57;;;3.20;;
47089;SDS011;32840;52.516;13.294;2022-09-09T07:13:08;5.45;;;2.97;;
47089;SDS011;32840;52.516;13.294;2022-09-09T07:15:54;13.77;;;4.35;;
47089;SDS011;32840;52.516;13.294;2022-09-09T07:18:39;8.85;;;3.33;;
47089;SDS011;32840;52.516;13.294;2022-09-09T07:21:26;6.97;;;2.95;;
47089;SDS011;32840;52.516;13.294;2022-09-09T07:24:11;5.50;;;2.92;;
47089;SDS011;32840;52.516;13.294;2022-09-09T07:26:56;4.93;;;2.60;;
47089;SDS011;32840;52.516;13.294;2022-09-09T07:29:41;6.15;;;2.70;;
47089;SDS011;32840;52.516;13.294;2022-09-09T07:32:26;8.00;;;2.35;;
47089;SDS011;32840;52.516;13.294;2022-09-09T07:35:11;5.15;;;2.80;;
47089;SDS011;32840;52.516;13.294;2022-09-09T07:37:56;4.75;;;2.38;;
47089;SDS011;32840;52.516;13.294;2022-09-09T07:40:42;2.97;;;2.30;;
47089;SDS011;32840;52.516;13.294;2022-09-09T07:43:27;7.07;;;2.70;;
47089;SDS011;32840;52.516;13.294;2022-09-09T07:46:13;7.25;;;4.03;;
47089;SDS011;32840;52.516;13.294;2022-09-09T07:48:59;7.63;;;3.20;;
47089;SDS011;32840;52.516;13.294;2022-09-09T07:51:45;5.60;;;2.20;;
47089;SDS011;32840;52.516;13.294;2022-09-09T07:54:32;7.30;;;2.20;;
47089;SDS011;32840;52.516;13.294;2022-09-09T07:57:16;4.53;;;1.65;;
47089;SDS011;32840;52.516;13.294;2022-09-09T08:00:03;9.57;;;4.45;;
47089;SDS011;32840;52.516;13.294;2022-09-09T08:02:48;5.10;;;2.33;;
47089;SDS011;32840;52.516;13.294;2022-09-09T08:05:33;6.03;;;1.65;;
47089;SDS011;32840;52.516;13.294;2022-09-09T08:08:18;3.90;;;1.30;;
47089;SDS011;32840;52.516;13.294;2022-09-09T08:11:05;8.70;;;1.65;;
47089;SDS011;32840;52.516;13.294;2022-09-09T08:13:52;1.98;;;1.40;;
47089;SDS011;32840;52.516;13.294;2022-09-09T08:16:39;3.03;;;1.50;;
47089;SDS011;32840;52.516;13.294;2022-09-09T08:19:25;8.75;;;1.98;;
47089;SDS011;32840;52.516;13.294;2022-09-09T08:22:10;4.47;;;1.50;;
47089;SDS011;32840;52.516;13.294;2022-09-09T08:24:55;5.57;;;2.15;;
47089;SDS011;32840;52.516;13.294;2022-09-09T08:27:40;4.72;;;1.73;;
47089;SDS011;32840;52.516;13.294;2022-09-09T08:30:24;4.72;;;2.00;;
47089;SDS011;32840;52.516;13.294;2022-09-09T08:33:09;4.53;;;1.48;;
47089;SDS011;32840;52.516;13.294;2022-09-09T08:35:54;7.50;;;1.83;;
47089;SDS011;32840;52.516;13.294;2022-09-09T08:38:40;8.13;;;1.80;;
47089;SDS011;32840;52.516;13.294;2022-09-09T08:41:35;5.20;;;1.73;;
47089;SDS011;32840;52.516;13.294;2022-09-09T08:47:21;5.13;;;1.40;;
47089;SDS011;32840;52.516;13.294;2022-09-09T08:50:13;2.97;;;1.80;;
47089;SDS011;32840;52.516;13.294;2022-09-09T08:53:04;3.58;;;2.38;;
47089;SDS011;32840;52.516;13.294;2022-09-09T08:56:15;6.53;;;3.38;;
47089;SDS011;32840;52.516;13.294;2022-09-09T08:59:03;4.25;;;1.70;;
47089;SDS011;32840;52.516;13.294;2022-09-09T09:02:13;4.78;;;1.70;;
47089;SDS011;32840;52.516;13.294;2022-09-09T09:05:05;8.10;;;1.77;;
47089;SDS011;32840;52.516;13.294;2022-09-09T09:08:06;6.70;;;1.90;;
47089;SDS011;32840;52.516;13.294;2022-09-09T09:11:15;4.65;;;1.88;;
47089;SDS011;32840;52.516;13.294;2022-09-09T09:14:01;9.27;;;5.65;;
47089;SDS011;32840;52.516;13.294;2022-09-09T09:16:58;6.18;;;3.50;;
47089;SDS011;32840;52.516;13.294;2022-09-09T09:19:48;7.35;;;4.28;;
47089;SDS011;32840;52.516;13.294;2022-09-09T09:22:51;5.28;;;2.00;;
47089;SDS011;32840;52.516;13.294;2022-09-09T09:25:39;4.82;;;1.70;;
47089;SDS011;32840;52.516;13.294;2022-09-09T09:28:29;4.10;;;1.80;;
47089;SDS011;32840;52.516;13.294;2022-09-09T09:31:15;4.82;;;1.50;;
47089;SDS011;32840;52.516;13.294;2022-09-09T09:34:04;4.57;;;1.70;;
47089;SDS011;32840;52.516;13.294;2022-09-09T09:36:53;7.40;;;4.75;;
47089;SDS011;32840;52.516;13.294;2022-09-09T09:39:40;2.78;;;1.10;;
47089;SDS011;32840;52.516;13.294;2022-09-09T09:42:25;4.40;;;1.80;;
47089;SDS011;32840;52.516;13.294;2022-09-09T09:45:32;6.00;;;1.92;;
47089;SDS011;32840;52.516;13.294;2022-09-09T09:48:19;4.95;;;1.40;;
47089;SDS011;32840;52.516;13.294;2022-09-09T09:51:08;4.15;;;1.38;;
47089;SDS011;32840;52.516;13.294;2022-09-09T09:54:14;4.10;;;1.33;;
47089;SDS011;32840;52.516;13.294;2022-09-09T09:57:12;7.07;;;3.80;;
47089;SDS011;32840;52.516;13.294;2022-09-09T10:00:12;5.57;;;1.92;;
47089;SDS011;32840;52.516;13.294;2022-09-09T10:03:02;6.07;;;1.35;;
47089;SDS011;32840;52.516;13.294;2022-09-09T10:06:04;5.38;;;1.83;;
47089;SDS011;32840;52.516;13.294;2022-09-09T10:08:49;5.25;;;1.58;;
47089;SDS011;32840;52.516;13.294;2022-09-09T10:14:24;7.18;;;1.40;;
47089;SDS011;32840;52.516;13.294;2022-09-09T10:17:34;5.95;;;1.55;;
47089;SDS011;32840;52.516;13.294;2022-09-09T10:20:35;4.82;;;1.75;;
47089;SDS011;32840;52.516;13.294;2022-09-09T10:26:34;3.92;;;1.52;;
47089;SDS011;32840;52.516;13.294;2022-09-09T10:33:08;4.07;;;1.35;;
47089;SDS011;32840;52.516;13.294;2022-09-09T10:36:13;4.80;;;1.38;;
47089;SDS011;32840;52.516;13.294;2022-09-09T10:39:16;3.72;;;1.10;;
47089;SDS011;32840;52.516;13.294;2022-09-09T10:42:12;4.22;;;1.60;;
47089;SDS011;32840;52.516;13.294;2022-09-09T10:45:02;8.00;;;1.77;;
47089;SDS011;32840;52.516;13.294;2022-09-09T10:47:59;2.75;;;1.10;;
47089;SDS011;32840;52.516;13.294;2022-09-09T10:50:56;2.67;;;0.82;;
47089;SDS011;32840;52.516;13.294;2022-09-09T10:53:48;3.25;;;1.40;;
47089;SDS011;32840;52.516;13.294;2022-09-09T10:56:42;5.53;;;1.90;;
47089;SDS011;32840;52.516;13.294;2022-09-09T10:59:37;6.40;;;3.63;;
47089;SDS011;32840;52.516;13.294;2022-09-09T11:02:30;3.67;;;1.27;;
47089;SDS011;32840;52.516;13.294;2022-09-09T11:05:20;3.78;;;1.30;;
47089;SDS011;32840;52.516;13.294;2022-09-09T11:08:25;6.20;;;3.92;;
47089;SDS011;32840;52.516;13.294;2022-09-09T11:11:20;4.63;;;2.03;;
47089;SDS011;32840;52.516;13.294;2022-09-09T11:14:28;3.45;;;1.13;;
47089;SDS011;32840;52.516;13.294;2022-09-09T11:17:18;3.95;;;1.25;;
47089;SDS011;32840;52.516;13.294;2022-09-09T11:20:10;5.95;;;2.20;;
47089;SDS011;32840;52.516;13.294;2022-09-09T11:23:01;3.17;;;1.65;;
47089;SDS011;32840;52.516;13.294;2022-09-09T11:25:58;6.50;;;3.25;;
47089;SDS011;32840;52.516;13.294;2022-09-09T11:31:57;4.30;;;1.20;;
47089;SDS011;32840;52.516;13.294;2022-09-09T11:34:56;5.88;;;1.10;;
47089;SDS011;32840;52.516;13.294;2022-09-09T11:38:09;4.90;;;1.20;;
47089;SDS011;32840;52.516;13.294;2022-09-09T11:41:04;3.33;;;1.52;;
47089;SDS011;32840;52.516;13.294;2022-09-09T11:43:51;5.65;;;1.27;;
47089;SDS011;32840;52.516;13.294;2022-09-09T11:46:37;2.67;;;0.93;;
47089;SDS011;32840;52.516;13.294;2022-09-09T11:52:39;7.00;;;1.33;;
47089;SDS011;32840;52.516;13.294;2022-09-09T11:55:28;2.28;;;1.10;;
47089;SDS011;32840;52.516;13.294;2022-09-09T11:58:15;5.28;;;1.65;;
47089;SDS011;32840;52.516;13.294;2022-09-09T12:01:01;3.47;;;1.48;;
47089;SDS011;32840;52.516;13.294;2022-09-09T12:07:24;2.55;;;1.05;;
47089;SDS011;32840;52.516;13.294;2022-09-09T12:10:32;4.13;;;0.90;;
47089;SDS011;32840;52.516;13.294;2022-09-09T12:13:19;2.97;;;1.10;;
47089;SDS011;32840;52.516;13.294;2022-09-09T12:16:26;2.78;;;0.98;;
47089;SDS011;32840;52.516;13.294;2022-09-09T12:19:18;3.78;;;0.95;;
47089;SDS011;32840;52.516;13.294;2022-09-09T12:32:07;3.67;;;0.98;;
47089;SDS011;32840;52.516;13.294;2022-09-09T12:34:56;3.60;;;1.40;;
47089;SDS011;32840;52.516;13.294;2022-09-09T12:37:48;3.35;;;1.02;;
47089;SDS011;32840;52.516;13.294;2022-09-09T12:40:38;3.85;;;1.00;;
47089;SDS011;32840;52.516;13.294;2022-09-09T12:43:24;6.07;;;1.00;;
47089;SDS011;32840;52.516;13.294;2022-09-09T12:46:11;2.70;;;0.90;;
47089;SDS011;32840;52.516;13.294;2022-09-09T12:52:29;4.18;;;1.08;;
47089;SDS011;32840;52.516;13.294;2022-09-09T12:55:19;2.50;;;1.20;;
47089;SDS011;32840;52.516;13.294;2022-09-09T12:58:06;4.20;;;1.33;;
47089;SDS011;32840;52.516;13.294;2022-09-09T13:00:53;2.58;;;0.95;;
47089;SDS011;32840;52.516;13.294;2022-09-09T13:03:42;4.15;;;0.88;;
47089;SDS011;32840;52.516;13.294;2022-09-09T13:06:31;5.32;;;2.20;;
47089;SDS011;32840;52.516;13.294;2022-09-09T13:09:17;3.97;;;1.48;;
47089;SDS011;32840;52.516;13.294;2022-09-09T13:12:02;3.40;;;1.00;;
47089;SDS011;32840;52.516;13.294;2022-09-09T13:14:53;4.22;;;0.75;;
47089;SDS011;32840;52.516;13.294;2022-09-09T13:17:40;5.55;;;2.03;;
47089;SDS011;32840;52.516;13.294;2022-09-09T13:20:25;5.20;;;2.95;;
47089;SDS011;32840;52.516;13.294;2022-09-09T13:23:10;7.18;;;1.60;;
47089;SDS011;32840;52.516;13.294;2022-09-09T13:25:57;3.75;;;0.93;;
47089;SDS011;32840;52.516;13.294;2022-09-09T13:28:43;2.53;;;0.98;;
47089;SDS011;32840;52.516;13.294;2022-09-09T13:31:32;4.20;;;1.30;;
47089;SDS011;32840;52.516;13.294;2022-09-09T13:34:27;3.72;;;1.42;;
47089;SDS011;32840;52.516;13.294;2022-09-09T13:37:20;3.72;;;1.27;;
47089;SDS011;32840;52.516;13.294;2022-09-09T13:40:18;6.32;;;1.30;;
47089;SDS011;32840;52.516;13.294;2022-09-09T13:43:05;4.18;;;2.30;;
47089;SDS011;32840;52.516;13.294;2022-09-09T13:52:03;4.20;;;1.33;;
47089;SDS011;32840;52.516;13.294;2022-09-09T13:54:55;5.45;;;1.40;;
47089;SDS011;32840;52.516;13.294;2022-09-09T14:00:45;5.57;;;1.70;;
47089;SDS011;32840;52.516;13.294;2022-09-09T14:03:30;5.03;;;1.10;;
47089;SDS011;32840;52.516;13.294;2022-09-09T14:06:15;4.65;;;1.05;;
47089;SDS011;32840;52.516;13.294;2022-09-09T14:09:02;4.95;;;1.40;;
47089;SDS011;32840;52.516;13.294;2022-09-09T14:11:48;5.22;;;1.30;;
47089;SDS011;32840;52.516;13.294;2022-09-09T14:14:33;3.08;;;1.00;;
47089;SDS011;32840;52.516;13.294;2022-09-09T14:17:18;3.83;;;1.98;;
47089;SDS011;32840;52.516;13.294;2022-09-09T14:20:03;3.65;;;1.30;;
47089;SDS011;32840;52.516;13.294;2022-09-09T14:22:53;4.13;;;1.13;;
47089;SDS011;32840;52.516;13.294;2022-09-09T14:25:39;2.88;;;0.77;;
47089;SDS011;32840;52.516;13.294;2022-09-09T14:28:25;5.63;;;1.40;;
47089;SDS011;32840;52.516;13.294;2022-09-09T14:31:10;5.10;;;1.30;;
47089;SDS011;32840;52.516;13.294;2022-09-09T14:33:55;4.68;;;1.23;;
47089;SDS011;32840;52.516;13.294;2022-09-09T14:36:40;3.33;;;1.15;;
47089;SDS011;32840;52.516;13.294;2022-09-09T14:39:25;8.73;;;3.33;;
47089;SDS011;32840;52.516;13.294;2022-09-09T14:42:10;4.28;;;1.83;;
47089;SDS011;32840;52.516;13.294;2022-09-09T14:44:55;5.18;;;1.70;;
47089;SDS011;32840;52.516;13.294;2022-09-09T14:47:40;6.63;;;1.83;;
47089;SDS011;32840;52.516;13.294;2022-09-09T14:50:25;5.68;;;2.67;;
47089;SDS011;32840;52.516;13.294;2022-09-09T14:53:10;4.85;;;1.10;;
47089;SDS011;32840;52.516;13.294;2022-09-09T14:56:02;8.15;;;2.58;;
47089;SDS011;32840;52.516;13.294;2022-09-09T14:58:52;3.85;;;1.33;;
47089;SDS011;32840;52.516;13.294;2022-09-09T15:01:39;4.53;;;1.45;;
47089;SDS011;32840;52.516;13.294;2022-09-09T15:04:24;4.95;;;1.10;;
47089;SDS011;32840;52.516;13.294;2022-09-09T15:07:09;3.25;;;1.08;;
47089;SDS011;32840;52.516;13.294;2022-09-09T15:09:55;4.82;;;1.00;;
47089;SDS011;32840;52.516;13.294;2022-09-09T15:12:39;7.82;;;1.83;;
47089;SDS011;32840;52.516;13.294;2022-09-09T15:15:26;5.15;;;1.40;;
47089;SDS011;32840;52.516;13.294;2022-09-09T15:18:11;4.40;;;1.60;;
47089;SDS011;32840;52.516;13.294;2022-09-09T15:20:57;3.20;;;1.08;;
47089;SDS011;32840;52.516;13.294;2022-09-09T15:23:42;1.92;;;0.80;;
47089;SDS011;32840;52.516;13.294;2022-09-09T15:26:27;4.30;;;1.10;;
47089;SDS011;32840;52.516;13.294;2022-09-09T15:29:14;4.88;;;1.58;;
47089;SDS011;32840;52.516;13.294;2022-09-09T15:31:59;4.10;;;1.35;;
47089;SDS011;32840;52.516;13.294;2022-09-09T15:34:44;3.92;;;1.25;;
47089;SDS011;32840;52.516;13.294;2022-09-09T15:37:29;2.90;;;1.17;;
47089;SDS011;32840;52.516;13.294;2022-09-09T15:40:14;3.88;;;1.20;;
47089;SDS011;32840;52.516;13.294;2022-09-09T15:42:58;3.85;;;1.00;;
47089;SDS011;32840;52.516;13.294;2022-09-09T15:45:45;3.55;;;1.23;;
47089;SDS011;32840;52.516;13.294;2022-09-09T15:48:32;5.13;;;1.60;;
47089;SDS011;32840;52.516;13.294;2022-09-09T15:51:17;7.45;;;4.03;;
47089;SDS011;32840;52.516;13.294;2022-09-09T15:54:03;4.50;;;1.88;;
47089;SDS011;32840;52.516;13.294;2022-09-09T15:56:49;4.40;;;1.60;;
47089;SDS011;32840;52.516;13.294;2022-09-09T15:59:40;5.70;;;1.98;;
47089;SDS011;32840;52.516;13.294;2022-09-09T16:02:24;6.18;;;1.80;;
47089;SDS011;32840;52.516;13.294;2022-09-09T16:05:09;7.15;;;2.10;;
47089;SDS011;32840;52.516;13.294;2022-09-09T16:07:54;6.20;;;2.45;;
47089;SDS011;32840;52.516;13.294;2022-09-09T16:10:39;5.88;;;2.75;;
47089;SDS011;32840;52.516;13.294;2022-09-09T16:13:24;4.78;;;2.67;;
47089;SDS011;32840;52.516;13.294;2022-09-09T16:16:12;8.98;;;4.88;;
47089;SDS011;32840;52.516;13.294;2022-09-09T16:19:00;7.33;;;3.50;;
47089;SDS011;32840;52.516;13.294;2022-09-09T16:21:48;5.78;;;2.60;;
47089;SDS011;32840;52.516;13.294;2022-09-09T16:24:34;6.05;;;1.90;;
47089;SDS011;32840;52.516;13.294;2022-09-09T16:27:18;6.82;;;2.03;;
47089;SDS011;32840;52.516;13.294;2022-09-09T16:30:03;6.80;;;2.25;;
47089;SDS011;32840;52.516;13.294;2022-09-09T16:32:48;5.22;;;2.47;;
47089;SDS011;32840;52.516;13.294;2022-09-09T16:35:35;6.20;;;2.25;;
47089;SDS011;32840;52.516;13.294;2022-09-09T16:38:21;6.15;;;2.20;;
47089;SDS011;32840;52.516;13.294;2022-09-09T16:41:07;3.78;;;2.10;;
47089;SDS011;32840;52.516;13.294;2022-09-09T16:43:54;4.68;;;1.80;;
47089;SDS011;32840;52.516;13.294;2022-09-09T16:46:40;7.40;;;4.10;;
47089;SDS011;32840;52.516;13.294;2022-09-09T16:49:26;8.38;;;3.30;;
47089;SDS011;32840;52.516;13.294;2022-09-09T16:52:12;10.25;;;3.08;;
47089;SDS011;32840;52.516;13.294;2022-09-09T16:54:57;5.65;;;2.72;;
47089;SDS011;32840;52.516;13.294;2022-09-09T16:57:41;5.45;;;2.55;;
47089;SDS011;32840;52.516;13.294;2022-09-09T17:00:26;6.93;;;2.85;;
47089;SDS011;32840;52.516;13.294;2022-09-09T17:03:12;24.08;;;16.42;;
47089;SDS011;32840;52.516;13.294;2022-09-09T17:05:58;6.80;;;2.90;;
47089;SDS011;32840;52.516;13.294;2022-09-09T17:08:46;7.65;;;2.85;;
47089;SDS011;32840;52.516;13.294;2022-09-09T17:11:32;7.95;;;4.45;;
47089;SDS011;32840;52.516;13.294;2022-09-09T17:14:19;9.52;;;5.90;;
47089;SDS011;32840;52.516;13.294;2022-09-09T17:17:05;6.78;;;3.58;;
47089;SDS011;32840;52.516;13.294;2022-09-09T17:19:50;6.57;;;3.72;;
47089;SDS011;32840;52.516;13.294;2022-09-09T17:22:35;7.15;;;4.30;;
47089;SDS011;32840;52.516;13.294;2022-09-09T17:25:20;5.47;;;3.80;;
47089;SDS011;32840;52.516;13.294;2022-09-09T17:28:07;15.73;;;10.98;;
47089;SDS011;32840;52.516;13.294;2022-09-09T17:30:51;6.60;;;3.83;;
47089;SDS011;32840;52.516;13.294;2022-09-09T17:33:37;8.65;;;3.90;;
47089;SDS011;32840;52.516;13.294;2022-09-09T17:36:28;9.18;;;4.13;;
47089;SDS011;32840;52.516;13.294;2022-09-09T17:39:15;9.05;;;4.10;;
47089;SDS011;32840;52.516;13.294;2022-09-09T17:42:00;7.85;;;4.13;;
47089;SDS011;32840;52.516;13.294;2022-09-09T17:44:45;10.55;;;5.40;;
47089;SDS011;32840;52.516;13.294;2022-09-09T17:47:30;10.90;;;5.65;;
47089;SDS011;32840;52.516;13.294;2022-09-09T17:50:15;6.65;;;4.60;;
47089;SDS011;32840;52.516;13.294;2022-09-09T17:53:00;5.65;;;2.58;;
47089;SDS011;32840;52.516;13.294;2022-09-09T17:55:46;7.40;;;2.35;;
47089;SDS011;32840;52.516;13.294;2022-09-09T17:58:31;5.68;;;2.30;;
47089;SDS011;32840;52.516;13.294;2022-09-09T18:01:18;5.70;;;2.40;;
47089;SDS011;32840;52.516;13.294;2022-09-09T18:04:05;6.63;;;3.25;;
47089;SDS011;32840;52.516;13.294;2022-09-09T18:06:51;5.22;;;2.63;;